createdAt,value
2018-07-22T00:02:26.749Z,13.58
2018-07-22T00:04:56.097Z,13.85
2018-07-22T00:07:25.311Z,14.68
2018-07-22T00:09:54.472Z,13.10
2018-07-22T00:12:23.660Z,12.68
2018-07-22T00:14:52.904Z,13.93
2018-07-22T00:17:22.109Z,13.70
2018-07-22T00:19:51.340Z,12.75
2018-07-22T00:22:20.557Z,13.40
2018-07-22T00:24:49.801Z,12.63
2018-07-22T00:27:19.005Z,13.98
2018-07-22T00:29:48.232Z,13.60
2018-07-22T00:32:17.452Z,13.18
2018-07-22T00:34:46.660Z,13.40
2018-07-22T00:37:15.837Z,12.73
2018-07-22T00:39:45.036Z,13.60
2018-07-22T00:42:14.288Z,13.30
2018-07-22T00:44:43.511Z,14.07
2018-07-22T00:47:12.712Z,14.98
2018-07-22T00:49:41.953Z,13.15
2018-07-22T00:52:11.162Z,13.48
2018-07-22T00:54:40.601Z,14.00
2018-07-22T00:57:09.782Z,12.73
2018-07-22T00:59:39.184Z,13.08
2018-07-22T01:02:08.417Z,13.68
2018-07-22T01:04:37.654Z,14.83
2018-07-22T01:07:06.925Z,14.38
2018-07-22T01:09:36.183Z,13.85
2018-07-22T01:12:05.422Z,13.25
2018-07-22T01:14:34.649Z,13.08
2018-07-22T01:17:03.846Z,13.10
2018-07-22T01:19:33.072Z,13.35
2018-07-22T01:22:02.281Z,14.68
2018-07-22T01:24:31.513Z,14.93
2018-07-22T01:27:00.737Z,15.35
2018-07-22T01:29:29.963Z,13.93
2018-07-22T01:31:59.163Z,14.73
2018-07-22T01:34:28.369Z,15.08
2018-07-22T01:36:57.570Z,15.55
2018-07-22T01:39:26.765Z,15.38
2018-07-22T01:41:55.973Z,15.25
2018-07-22T01:44:25.195Z,16.05
2018-07-22T01:46:54.426Z,15.95
2018-07-22T01:49:23.628Z,14.70
2018-07-22T01:51:52.895Z,17.10
2018-07-22T01:54:22.102Z,15.48
2018-07-22T01:56:51.420Z,17.75
2018-07-22T01:59:20.702Z,16.00
2018-07-22T02:01:49.913Z,15.68
2018-07-22T02:04:19.121Z,16.42
2018-07-22T02:06:48.326Z,16.93
2018-07-22T02:09:17.570Z,18.57
2018-07-22T02:11:46.804Z,17.25
2018-07-22T02:14:16.033Z,17.55
2018-07-22T02:16:45.395Z,16.48
2018-07-22T02:19:14.655Z,15.90
2018-07-22T02:21:43.881Z,16.70
2018-07-22T02:24:13.105Z,15.55
2018-07-22T02:26:42.303Z,14.40
2018-07-22T02:29:11.600Z,14.23
2018-07-22T02:31:41.055Z,13.32
2018-07-22T02:34:10.305Z,13.20
2018-07-22T02:36:39.839Z,12.23
2018-07-22T02:39:11.901Z,12.90
2018-07-22T02:41:41.231Z,11.68
2018-07-22T02:44:10.918Z,12.37
2018-07-22T02:46:40.148Z,12.07
2018-07-22T02:49:09.331Z,11.90
2018-07-22T02:51:38.651Z,11.57
2018-07-22T02:54:07.808Z,12.63
2018-07-22T02:56:37.015Z,11.53
2018-07-22T02:59:06.722Z,11.55
2018-07-22T03:01:37.759Z,11.38
2018-07-22T03:04:08.310Z,12.53
2018-07-22T03:06:37.552Z,11.90
2018-07-22T03:09:09.376Z,12.15
2018-07-22T03:11:38.664Z,11.97
2018-07-22T03:14:08.008Z,11.93
2018-07-22T03:16:37.251Z,11.83
2018-07-22T03:19:06.442Z,11.25
2018-07-22T03:21:35.665Z,11.43
2018-07-22T03:24:04.900Z,12.37
2018-07-22T03:26:34.112Z,12.50
2018-07-22T03:29:03.301Z,11.70
2018-07-22T03:31:32.504Z,12.13
2018-07-22T03:34:01.730Z,13.55
2018-07-22T03:36:30.967Z,14.15
2018-07-22T03:39:00.192Z,13.45
2018-07-22T03:41:29.380Z,12.43
2018-07-22T03:43:58.650Z,12.43
2018-07-22T03:46:27.844Z,15.48
2018-07-22T03:48:57.062Z,14.87
2018-07-22T03:51:26.235Z,14.07
2018-07-22T03:53:55.918Z,13.35
2018-07-22T03:56:25.156Z,12.63
2018-07-22T03:58:54.395Z,13.53
2018-07-22T04:01:23.613Z,13.20
2018-07-22T04:03:53.292Z,13.22
2018-07-22T04:06:22.476Z,13.20
2018-07-22T04:08:51.724Z,13.20
2018-07-22T04:11:22.485Z,13.35
2018-07-22T04:13:51.468Z,12.50
2018-07-22T04:16:20.691Z,12.75
2018-07-22T04:18:52.919Z,12.13
2018-07-22T04:21:23.770Z,13.25
2018-07-22T04:23:53.026Z,14.05
2018-07-22T04:26:22.595Z,14.13
2018-07-22T04:28:52.205Z,13.35
2018-07-22T04:31:21.704Z,13.03
2018-07-22T04:33:50.975Z,13.45
2018-07-22T04:36:20.175Z,12.90
2018-07-22T04:38:49.417Z,13.72
2018-07-22T04:41:18.621Z,13.83
2018-07-22T04:43:47.832Z,13.95
2018-07-22T04:46:17.104Z,13.35
2018-07-22T04:48:46.379Z,13.43
2018-07-22T04:51:15.836Z,12.78
2018-07-22T04:53:45.063Z,13.65
2018-07-22T04:56:14.268Z,13.48
2018-07-22T04:58:43.529Z,14.15
2018-07-22T05:01:12.781Z,13.28
2018-07-22T05:03:41.992Z,12.95
2018-07-22T05:06:11.282Z,13.60
2018-07-22T05:08:40.512Z,12.78
2018-07-22T05:11:09.702Z,13.35
2018-07-22T05:13:38.971Z,14.90
2018-07-22T05:16:08.172Z,18.80
2018-07-22T05:18:37.356Z,29.57
2018-07-22T05:21:06.586Z,24.72
2018-07-22T05:23:35.835Z,20.65
2018-07-22T05:26:05.276Z,20.75
2018-07-22T05:28:34.454Z,17.92
2018-07-22T05:31:03.729Z,16.90
2018-07-22T05:33:32.908Z,17.32
2018-07-22T05:36:02.117Z,17.82
2018-07-22T05:38:31.344Z,16.80
2018-07-22T05:41:00.553Z,16.23
2018-07-22T05:43:29.772Z,16.07
2018-07-22T05:45:58.998Z,16.17
2018-07-22T05:48:28.177Z,15.60
2018-07-22T05:50:57.383Z,15.03
2018-07-22T05:53:26.561Z,15.50
2018-07-22T05:55:55.817Z,15.43
2018-07-22T05:58:24.993Z,14.30
2018-07-22T06:00:54.287Z,13.15
2018-07-22T06:03:23.662Z,13.48
2018-07-22T06:05:52.889Z,13.78
2018-07-22T06:08:22.054Z,13.45
2018-07-22T06:10:51.411Z,13.43
2018-07-22T06:13:20.658Z,13.62
2018-07-22T06:15:49.886Z,13.72
2018-07-22T06:18:19.085Z,13.90
2018-07-22T06:20:48.342Z,13.58
2018-07-22T06:23:17.552Z,12.95
2018-07-22T06:25:46.831Z,14.45
2018-07-22T06:28:16.064Z,13.78
2018-07-22T06:30:45.278Z,12.80
2018-07-22T06:33:14.553Z,12.37
2018-07-22T06:35:43.804Z,11.15
2018-07-22T06:38:13.026Z,11.50
2018-07-22T06:40:42.280Z,11.95
2018-07-22T06:43:11.467Z,12.30
2018-07-22T06:45:40.701Z,12.47
2018-07-22T06:48:09.949Z,11.90
2018-07-22T06:50:39.160Z,11.18
2018-07-22T06:53:08.329Z,12.20
2018-07-22T06:55:37.624Z,12.15
2018-07-22T06:58:06.909Z,11.97
2018-07-22T07:00:36.109Z,10.53
2018-07-22T07:03:06.381Z,9.93
2018-07-22T07:05:35.351Z,10.68
2018-07-22T07:08:04.812Z,10.82
2018-07-22T07:10:34.044Z,10.80
2018-07-22T07:13:03.277Z,11.10
2018-07-22T07:15:32.473Z,10.08
2018-07-22T07:18:01.669Z,10.70
2018-07-22T07:20:30.874Z,11.57
2018-07-22T07:23:00.165Z,10.88
2018-07-22T07:25:29.335Z,11.03
2018-07-22T07:27:58.615Z,10.70
2018-07-22T07:30:27.809Z,9.98
2018-07-22T07:32:57.020Z,9.63
2018-07-22T07:35:26.236Z,10.10
2018-07-22T07:37:55.457Z,10.10
2018-07-22T07:40:24.679Z,10.63
2018-07-22T07:42:54.472Z,10.53
2018-07-22T07:45:23.687Z,10.53
2018-07-22T07:47:52.927Z,11.18
2018-07-22T07:50:22.165Z,11.00
2018-07-22T07:52:51.387Z,10.72
2018-07-22T07:55:20.580Z,11.68
2018-07-22T07:57:49.815Z,10.93
2018-07-22T08:00:19.034Z,10.93
2018-07-22T08:02:48.354Z,10.70
2018-07-22T08:05:17.547Z,12.23
2018-07-22T08:07:46.857Z,13.18
2018-07-22T08:10:16.097Z,12.63
2018-07-22T08:12:45.365Z,13.58
2018-07-22T08:15:14.611Z,14.33
2018-07-22T08:17:43.876Z,13.70
2018-07-22T08:20:13.101Z,13.50
2018-07-22T08:22:42.309Z,12.15
2018-07-22T08:25:11.572Z,11.50
2018-07-22T08:27:40.872Z,14.75
2018-07-22T08:30:10.078Z,15.30
2018-07-22T08:32:39.301Z,14.10
2018-07-22T08:35:08.502Z,14.85
2018-07-22T08:37:37.692Z,12.68
2018-07-22T08:40:07.406Z,12.85
2018-07-22T08:42:36.605Z,13.10
2018-07-22T08:45:06.863Z,11.48
2018-07-22T08:47:36.062Z,11.60
2018-07-22T08:50:05.565Z,12.13
2018-07-22T08:52:34.857Z,11.68
2018-07-22T08:55:04.071Z,12.80
2018-07-22T08:57:33.262Z,12.65
2018-07-22T09:00:02.490Z,12.37
2018-07-22T09:02:31.709Z,12.05
2018-07-22T09:05:00.960Z,13.32
2018-07-22T09:07:30.193Z,13.85
2018-07-22T09:09:59.460Z,13.78
2018-07-22T09:12:28.714Z,12.53
2018-07-22T09:14:57.999Z,12.88
2018-07-22T09:17:27.253Z,13.35
2018-07-22T09:19:56.563Z,13.98
2018-07-22T09:22:25.842Z,13.10
2018-07-22T09:24:55.690Z,12.73
2018-07-22T09:27:24.946Z,12.30
2018-07-22T09:29:54.197Z,13.68
2018-07-22T09:32:23.418Z,13.75
2018-07-22T09:34:52.812Z,16.60
2018-07-22T09:37:22.040Z,16.70
2018-07-22T09:39:51.260Z,16.67
2018-07-22T09:42:21.615Z,15.43
2018-07-22T09:44:50.886Z,14.33
2018-07-22T09:47:20.208Z,13.95
2018-07-22T09:49:49.550Z,15.80
2018-07-22T09:52:18.864Z,14.85
2018-07-22T09:54:48.164Z,14.90
2018-07-22T09:57:17.442Z,13.25
2018-07-22T09:59:46.699Z,15.75
2018-07-22T10:02:15.960Z,14.90
2018-07-22T10:04:45.397Z,15.32
2018-07-22T10:07:14.691Z,15.63
2018-07-22T10:09:43.942Z,16.62
2018-07-22T10:12:13.255Z,17.12
2018-07-22T10:14:42.565Z,16.90
2018-07-22T10:17:11.768Z,19.32
2018-07-22T10:19:40.977Z,16.50
2018-07-22T10:22:10.353Z,17.15
2018-07-22T10:24:39.644Z,16.20
2018-07-22T10:27:08.880Z,16.48
2018-07-22T10:29:38.184Z,16.70
2018-07-22T10:32:07.824Z,15.00
2018-07-22T10:34:37.093Z,15.93
2018-07-22T10:37:06.384Z,17.15
2018-07-22T10:39:35.688Z,16.52
2018-07-22T10:42:04.921Z,14.55
2018-07-22T10:44:34.218Z,14.95
2018-07-22T10:47:03.440Z,15.30
2018-07-22T10:49:32.671Z,14.38
2018-07-22T10:52:01.952Z,15.20
2018-07-22T10:54:31.148Z,15.03
2018-07-22T10:57:00.376Z,14.00
2018-07-22T10:59:29.628Z,15.35
2018-07-22T11:01:58.876Z,14.47
2018-07-22T11:04:28.114Z,14.95
2018-07-22T11:06:57.385Z,14.20
2018-07-22T11:09:26.999Z,14.23
2018-07-22T11:11:56.417Z,13.45
2018-07-22T11:14:25.820Z,14.73
2018-07-22T11:16:55.221Z,14.87
2018-07-22T11:19:24.550Z,13.62
2018-07-22T11:21:53.801Z,12.25
2018-07-22T11:24:23.236Z,10.68
2018-07-22T11:26:52.649Z,9.33
2018-07-22T11:29:22.008Z,9.33
2018-07-22T11:31:51.300Z,9.35
2018-07-22T11:34:20.680Z,9.53
2018-07-22T11:36:49.936Z,9.25
2018-07-22T11:39:19.277Z,9.80
2018-07-22T11:41:48.548Z,9.80
2018-07-22T11:44:17.907Z,9.25
2018-07-22T11:46:47.308Z,9.33
2018-07-22T11:49:16.591Z,9.43
2018-07-22T11:51:45.904Z,9.10
2018-07-22T11:54:15.237Z,9.98
2018-07-22T11:56:44.525Z,9.75
2018-07-22T11:59:13.869Z,8.98
2018-07-22T12:01:43.076Z,8.58
2018-07-22T12:04:12.412Z,8.70
2018-07-22T12:06:41.688Z,8.98
2018-07-22T12:09:12.328Z,8.50
2018-07-22T12:11:41.937Z,9.68
2018-07-22T12:14:11.142Z,8.48
2018-07-22T12:16:40.384Z,9.55
2018-07-22T12:19:09.639Z,9.40
2018-07-22T12:21:38.836Z,8.38
2018-07-22T12:24:08.231Z,7.95
2018-07-22T12:26:37.488Z,8.65
2018-07-22T12:29:06.962Z,9.03
2018-07-22T12:31:36.103Z,8.28
2018-07-22T12:34:05.373Z,8.83
2018-07-22T12:36:34.838Z,8.30
2018-07-22T12:39:06.494Z,7.70
2018-07-22T12:41:35.723Z,9.00
2018-07-22T12:44:05.123Z,8.05
2018-07-22T12:46:34.391Z,8.63
2018-07-22T12:49:03.695Z,8.75
2018-07-22T12:51:32.895Z,8.45
2018-07-22T12:54:02.203Z,8.68
2018-07-22T12:56:31.539Z,9.38
2018-07-22T12:59:00.840Z,8.80
2018-07-22T13:01:30.169Z,9.33
2018-07-22T13:03:59.461Z,10.45
2018-07-22T13:06:28.746Z,9.40
2018-07-22T13:08:57.986Z,9.80
2018-07-22T13:11:27.259Z,10.72
2018-07-22T13:13:56.522Z,11.38
2018-07-22T13:16:25.758Z,10.28
2018-07-22T13:18:55.124Z,9.58
2018-07-22T13:21:24.304Z,9.50
2018-07-22T13:23:53.639Z,10.03
2018-07-22T13:26:22.579Z,9.28
2018-07-22T13:28:51.924Z,9.13
2018-07-22T13:31:21.177Z,9.10
2018-07-22T13:33:50.416Z,9.13
2018-07-22T13:36:19.688Z,8.70
2018-07-22T13:38:48.884Z,8.55
2018-07-22T13:41:18.173Z,9.18
2018-07-22T13:43:47.502Z,9.93
2018-07-22T13:46:17.089Z,9.43
2018-07-22T13:48:46.316Z,9.20
2018-07-22T13:51:15.560Z,9.83
2018-07-22T13:53:44.765Z,8.93
2018-07-22T13:56:14.158Z,8.43
2018-07-22T13:58:43.381Z,9.45
2018-07-22T14:01:12.647Z,9.43
2018-07-22T14:03:41.915Z,8.80
2018-07-22T14:06:11.221Z,8.35
2018-07-22T14:08:40.425Z,9.13
2018-07-22T14:11:09.659Z,8.35
2018-07-22T14:13:38.884Z,9.33
2018-07-22T14:16:08.209Z,9.18
2018-07-22T14:18:37.558Z,10.30
2018-07-22T14:21:06.809Z,8.58
2018-07-22T14:23:36.264Z,8.88
2018-07-22T14:26:06.248Z,8.40
2018-07-22T14:28:35.631Z,8.20
2018-07-22T14:31:05.739Z,8.75
2018-07-22T14:33:35.059Z,8.50
2018-07-22T14:36:04.357Z,8.48
2018-07-22T14:38:33.582Z,9.60
2018-07-22T14:41:03.858Z,8.95
2018-07-22T14:43:33.085Z,7.92
2018-07-22T14:46:02.898Z,8.40
2018-07-22T14:48:32.145Z,8.88
2018-07-22T14:51:02.107Z,9.23
2018-07-22T14:53:31.407Z,8.18
2018-07-22T14:56:00.895Z,8.90
2018-07-22T14:58:30.399Z,8.55
2018-07-22T15:00:59.623Z,9.58
2018-07-22T15:03:29.493Z,9.53
2018-07-22T15:05:58.868Z,9.25
2018-07-22T15:08:28.163Z,9.28
2018-07-22T15:10:57.383Z,8.90
2018-07-22T15:13:26.677Z,8.85
2018-07-22T15:15:56.423Z,8.15
2018-07-22T15:18:25.717Z,9.20
2018-07-22T15:20:55.101Z,8.63
2018-07-22T15:23:24.460Z,8.48
2018-07-22T15:25:54.460Z,8.48
2018-07-22T15:28:23.684Z,8.15
2018-07-22T15:30:53.573Z,8.85
2018-07-22T15:33:23.018Z,8.13
2018-07-22T15:35:52.275Z,7.67
2018-07-22T15:38:21.537Z,8.13
2018-07-22T15:40:50.961Z,7.90
2018-07-22T15:43:20.269Z,8.08
2018-07-22T15:45:49.514Z,7.58
2018-07-22T15:48:18.816Z,7.87
2018-07-22T15:50:48.131Z,7.53
2018-07-22T15:53:17.617Z,8.50
2018-07-22T15:55:47.014Z,8.05
2018-07-22T15:58:16.413Z,7.97
2018-07-22T16:00:45.813Z,7.83
2018-07-22T16:03:15.091Z,8.90
2018-07-22T16:05:44.749Z,8.43
2018-07-22T16:08:13.945Z,7.65
2018-07-22T16:10:43.253Z,8.55
2018-07-22T16:13:13.192Z,7.97
2018-07-22T16:15:42.442Z,7.55
2018-07-22T16:18:12.178Z,8.13
2018-07-22T16:20:41.398Z,8.38
2018-07-22T16:23:10.683Z,8.05
2018-07-22T16:25:40.023Z,8.38
2018-07-22T16:28:09.380Z,7.62
2018-07-22T16:30:38.668Z,8.28
2018-07-22T16:33:08.046Z,7.55
2018-07-22T16:35:37.308Z,8.13
2018-07-22T16:38:06.635Z,8.00
2018-07-22T16:40:36.072Z,7.28
2018-07-22T16:43:05.319Z,8.18
2018-07-22T16:45:34.636Z,8.30
2018-07-22T16:48:03.846Z,7.95
2018-07-22T16:50:33.200Z,7.87
2018-07-22T16:53:02.521Z,7.47
2018-07-22T16:55:31.773Z,8.38
2018-07-22T16:58:01.137Z,7.70
2018-07-22T17:00:30.673Z,7.80
2018-07-22T17:02:59.864Z,7.60
2018-07-22T17:05:29.242Z,8.05
2018-07-22T17:07:58.478Z,8.20
2018-07-22T17:10:27.807Z,7.50
2018-07-22T17:12:57.275Z,7.80
2018-07-22T17:15:26.537Z,7.42
2018-07-22T17:17:55.880Z,7.25
2018-07-22T17:20:25.195Z,8.03
2018-07-22T17:22:54.660Z,8.30
2018-07-22T17:25:24.015Z,8.18
2018-07-22T17:27:53.436Z,7.80
2018-07-22T17:30:22.824Z,7.67
2018-07-22T17:32:52.225Z,8.28
2018-07-22T17:35:21.476Z,8.70
2018-07-22T17:37:50.925Z,7.78
2018-07-22T17:40:20.233Z,8.50
2018-07-22T17:42:49.615Z,6.92
2018-07-22T17:45:19.805Z,7.50
2018-07-22T17:47:49.080Z,7.53
2018-07-22T17:50:18.477Z,7.92
2018-07-22T17:52:47.787Z,8.20
2018-07-22T17:55:17.337Z,9.35
2018-07-22T17:57:46.762Z,8.85
2018-07-22T18:00:16.165Z,8.68
2018-07-22T18:02:52.602Z,8.65
2018-07-22T18:05:21.883Z,8.75
2018-07-22T18:07:51.164Z,8.63
2018-07-22T18:10:20.406Z,8.90
2018-07-22T18:12:49.649Z,8.88
2018-07-22T18:15:18.900Z,8.43
2018-07-22T18:17:48.112Z,8.10
2018-07-22T18:20:17.396Z,8.75
2018-07-22T18:22:46.596Z,8.43
2018-07-22T18:25:15.845Z,8.95
2018-07-22T18:27:45.070Z,9.13
2018-07-22T18:30:14.289Z,9.18
2018-07-22T18:32:43.517Z,8.50
2018-07-22T18:35:12.722Z,8.60
2018-07-22T18:37:42.992Z,9.15
2018-07-22T18:40:12.201Z,9.65
2018-07-22T18:42:41.492Z,10.08
2018-07-22T18:45:10.780Z,9.10
2018-07-22T18:50:40.207Z,9.08
2018-07-22T18:53:09.400Z,9.55
2018-07-22T18:55:38.652Z,8.95
2018-07-22T18:58:07.884Z,9.95
2018-07-22T19:03:38.981Z,9.90
2018-07-22T19:06:07.988Z,9.18
2018-07-22T19:11:37.263Z,9.78
2018-07-22T19:14:06.601Z,9.70
2018-07-22T19:16:35.872Z,9.05
2018-07-22T19:19:05.134Z,10.65
2018-07-22T19:21:34.393Z,9.43
2018-07-22T19:24:03.914Z,9.38
2018-07-22T19:26:33.350Z,9.70
2018-07-22T19:29:02.576Z,10.63
2018-07-22T19:31:31.813Z,11.75
2018-07-22T19:34:20.351Z,11.18
2018-07-22T19:36:49.622Z,10.63
2018-07-22T19:39:18.897Z,10.48
2018-07-22T19:41:48.142Z,10.95
2018-07-22T19:44:17.401Z,11.20
2018-07-22T19:46:46.679Z,11.38
2018-07-22T19:49:15.958Z,10.50
2018-07-22T19:51:45.208Z,11.68
2018-07-22T19:54:14.824Z,11.00
2018-07-22T19:56:44.334Z,11.43
2018-07-22T19:59:13.565Z,10.90
2018-07-22T20:01:43.437Z,11.05
2018-07-22T20:04:14.425Z,10.68
2018-07-22T20:06:44.449Z,11.25
2018-07-22T20:09:14.413Z,11.45
2018-07-22T20:11:43.997Z,11.20
2018-07-22T20:14:13.244Z,11.97
2018-07-22T20:16:42.419Z,11.50
2018-07-22T20:19:11.816Z,12.05
2018-07-22T20:21:41.177Z,10.90
2018-07-22T20:24:10.446Z,11.45
2018-07-22T20:26:39.897Z,12.28
2018-07-22T20:29:09.082Z,11.53
2018-07-22T20:31:38.321Z,12.07
2018-07-22T20:34:07.531Z,11.97
2018-07-22T20:36:36.728Z,11.80
2018-07-22T20:39:09.481Z,11.33
2018-07-22T20:41:39.538Z,11.05
2018-07-22T20:44:08.737Z,11.80
2018-07-22T20:46:37.936Z,11.75
2018-07-22T20:49:07.192Z,11.22
2018-07-22T20:51:36.420Z,11.20
2018-07-22T20:54:05.643Z,11.05
2018-07-22T20:56:34.931Z,11.38
2018-07-22T20:59:04.160Z,11.45
2018-07-22T21:01:33.353Z,10.20
2018-07-22T21:04:02.579Z,10.85
2018-07-22T21:06:31.812Z,11.18
2018-07-22T21:09:00.988Z,11.38
2018-07-22T21:11:49.510Z,11.45
2018-07-22T21:14:18.828Z,11.63
2018-07-22T21:16:48.054Z,12.05
2018-07-22T21:19:17.307Z,12.88
2018-07-22T21:21:46.550Z,11.85
2018-07-22T21:24:15.928Z,11.75
2018-07-22T21:26:45.385Z,12.37
2018-07-22T21:29:14.673Z,12.53
2018-07-22T21:31:43.889Z,12.63
2018-07-22T21:34:13.210Z,12.43
2018-07-22T21:36:42.451Z,12.80
2018-07-22T21:39:11.648Z,13.32
2018-07-22T21:41:40.937Z,13.62
2018-07-22T21:44:10.137Z,14.05
2018-07-22T21:46:39.395Z,14.13
2018-07-22T21:49:08.596Z,14.10
2018-07-22T21:51:37.931Z,14.47
2018-07-22T21:54:07.143Z,14.20
2018-07-22T21:56:36.351Z,14.20
2018-07-22T21:59:05.596Z,13.60
2018-07-22T22:01:34.826Z,15.32
2018-07-22T22:04:04.054Z,15.03
2018-07-22T22:06:33.263Z,15.50
2018-07-22T22:09:02.505Z,15.03
2018-07-22T22:11:31.708Z,13.70
2018-07-22T22:14:00.928Z,14.23
2018-07-22T22:16:30.156Z,13.95
2018-07-22T22:18:59.472Z,14.73
2018-07-22T22:21:28.823Z,14.65
2018-07-22T22:23:58.139Z,14.55
2018-07-22T22:26:27.348Z,14.50
2018-07-22T22:28:56.570Z,15.08
2018-07-22T22:31:25.811Z,14.80
2018-07-22T22:33:55.022Z,15.25
2018-07-22T22:36:24.227Z,15.05
2018-07-22T22:38:53.521Z,15.60
2018-07-22T22:41:22.807Z,16.05
2018-07-22T22:43:52.069Z,15.00
2018-07-22T22:46:21.301Z,15.80
2018-07-22T22:48:50.495Z,14.47
2018-07-22T22:51:19.823Z,14.38
2018-07-22T22:53:49.002Z,14.80
2018-07-22T22:56:18.296Z,15.20
2018-07-22T22:59:04.517Z,14.70
2018-07-22T23:01:33.724Z,14.85
2018-07-22T23:04:02.913Z,14.28
2018-07-22T23:06:32.220Z,14.95
2018-07-22T23:09:01.432Z,16.05
2018-07-22T23:11:30.649Z,14.65
2018-07-22T23:13:59.888Z,15.48
2018-07-22T23:16:29.100Z,14.38
2018-07-22T23:18:58.288Z,14.55
2018-07-22T23:21:27.478Z,14.98
2018-07-22T23:23:57.366Z,14.83
2018-07-22T23:26:26.578Z,14.98
2018-07-22T23:28:55.888Z,15.20
2018-07-22T23:31:24.983Z,14.50
2018-07-22T23:33:54.556Z,14.70
2018-07-22T23:36:23.815Z,15.38
2018-07-22T23:38:53.021Z,15.88
2018-07-22T23:41:22.377Z,16.17
2018-07-22T23:43:51.665Z,14.70
2018-07-22T23:46:20.925Z,15.05
2018-07-22T23:48:50.175Z,15.20
2018-07-22T23:51:19.368Z,14.45
2018-07-22T23:53:48.569Z,14.38
2018-07-22T23:56:17.797Z,14.98
2018-07-22T23:58:47.089Z,15.55
